Time;durP1;ratioP1;P1;durP2;ratioP2;P2;SDS_P1;SDS_P2;PMS_P1;PMS_P2;Temp;Humidity;BMP_temperature;BMP_pressure;BME280_temperature;BME280_humidity;BME280_pressure;Samples;Min_cycle;Max_cycle;Signal;HPM_P1;HPM_P2
2024/02/14 00:00:14;;;;;;;49.33;9.73;;;9.80;94.60;;;;;;5065315;28;20028;-49
2024/02/14 00:02:51;;;;;;;53.85;9.10;;;9.80;94.60;;;;;;5066432;28;20114;-49
2024/02/14 00:05:17;;;;;;;50.28;8.80;;;9.80;94.60;;;;;;5065315;28;20029;-49
2024/02/14 00:07:42;;;;;;;36.15;7.38;;;9.80;94.60;;;;;;5065185;28;20044;-49
2024/02/14 00:10:09;;;;;;;42.65;8.63;;;9.80;94.70;;;;;;5066180;28;20037;-49
2024/02/14 00:12:35;;;;;;;46.88;9.00;;;9.80;94.70;;;;;;5066330;28;20048;-49
2024/02/14 00:15:03;;;;;;;55.28;8.43;;;9.70;94.60;;;;;;5065128;28;20525;-49
2024/02/14 00:17:29;;;;;;;39.25;8.93;;;9.70;94.60;;;;;;5066157;28;20032;-49
2024/02/14 00:19:55;;;;;;;45.53;8.30;;;9.70;94.60;;;;;;5065062;28;20031;-49
2024/02/14 00:22:21;;;;;;;42.65;8.27;;;9.70;94.70;;;;;;5066165;28;20025;-49
2024/02/14 00:24:46;;;;;;;35.17;7.82;;;9.70;94.70;;;;;;5066078;28;20021;-49
2024/02/14 00:27:14;;;;;;;46.38;7.93;;;9.70;94.70;;;;;;5065066;28;20024;-49
2024/02/14 00:29:40;;;;;;;39.88;7.50;;;9.70;94.70;;;;;;5066148;28;20040;-49
2024/02/14 00:32:05;;;;;;;45.88;7.90;;;9.70;94.70;;;;;;5064966;28;20029;-49
2024/02/14 00:34:31;;;;;;;47.00;8.68;;;9.60;94.70;;;;;;5064973;28;20033;-49
2024/02/14 00:36:57;;;;;;;47.25;7.30;;;9.70;94.80;;;;;;5066010;28;20025;-49
2024/02/14 00:39:22;;;;;;;46.55;8.70;;;9.60;94.80;;;;;;5064785;28;20025;-49
2024/02/14 00:41:48;;;;;;;40.60;7.50;;;9.60;94.80;;;;;;5048215;28;20074;-49
2024/02/14 00:44:16;;;;;;;41.95;7.18;;;9.60;94.80;;;;;;5064696;28;20053;-49
2024/02/14 00:46:43;;;;;;;35.55;6.82;;;9.60;94.80;;;;;;5064976;28;20021;-49
2024/02/14 00:49:10;;;;;;;36.05;6.85;;;9.60;94.90;;;;;;5065939;28;20036;-49
2024/02/14 00:51:37;;;;;;;34.28;7.10;;;9.60;94.90;;;;;;5064666;28;20025;-49
2024/02/14 00:54:03;;;;;;;43.50;7.47;;;9.60;94.90;;;;;;5065980;28;20036;-49
2024/02/14 00:56:28;;;;;;;29.55;7.10;;;9.60;94.90;;;;;;5064766;28;20018;-49
2024/02/14 00:58:54;;;;;;;39.10;6.95;;;9.50;94.90;;;;;;5064600;28;20040;-49
2024/02/14 01:01:19;;;;;;;24.30;6.72;;;9.50;95.00;;;;;;5069086;28;20033;-49
2024/02/14 01:03:45;;;;;;;38.25;7.18;;;9.50;95.00;;;;;;5068631;28;20037;-49
2024/02/14 01:06:11;;;;;;;29.42;6.22;;;9.50;95.00;;;;;;5068445;28;20465;-49
2024/02/14 01:08:37;;;;;;;29.15;6.13;;;9.50;95.00;;;;;;5068218;28;20041;-49
2024/02/14 01:11:04;;;;;;;23.83;6.22;;;9.50;95.00;;;;;;5069685;28;20029;-48
2024/02/14 01:13:29;;;;;;;26.30;6.07;;;9.50;95.00;;;;;;5068392;28;20104;-49
2024/02/14 01:15:55;;;;;;;31.23;6.45;;;9.50;95.10;;;;;;5068391;28;20028;-49
2024/02/14 01:18:20;;;;;;;27.65;6.35;;;9.40;95.00;;;;;;5068250;28;20040;-49
2024/02/14 01:20:46;;;;;;;26.05;6.28;;;9.40;95.10;;;;;;5068133;28;20013;-49
2024/02/14 01:23:12;;;;;;;28.20;6.35;;;9.40;95.10;;;;;;5069778;28;20025;-49
2024/02/14 01:25:37;;;;;;;32.17;6.93;;;9.40;95.10;;;;;;5068180;28;20043;-49
2024/02/14 01:28:05;;;;;;;27.02;6.45;;;9.40;95.10;;;;;;5068071;28;20025;-49
2024/02/14 01:30:30;;;;;;;26.98;5.55;;;9.40;95.10;;;;;;5067763;28;20079;-49
2024/02/14 01:32:56;;;;;;;21.02;6.20;;;9.40;95.10;;;;;;5067995;28;20104;-49
2024/02/14 01:35:22;;;;;;;27.40;6.38;;;9.40;95.10;;;;;;5069085;28;20154;-49
2024/02/14 01:37:48;;;;;;;28.17;6.65;;;9.40;95.10;;;;;;5069027;28;20029;-49
2024/02/14 01:40:13;;;;;;;30.60;6.63;;;9.40;95.10;;;;;;5068054;28;20087;-49
2024/02/14 01:42:39;;;;;;;28.27;6.65;;;9.40;95.20;;;;;;5067705;28;20029;-49
2024/02/14 01:45:05;;;;;;;24.90;6.20;;;9.40;95.20;;;;;;5067890;28;20036;-49
2024/02/14 01:47:32;;;;;;;23.20;5.95;;;9.30;95.20;;;;;;5067719;28;20049;-49
2024/02/14 01:49:58;;;;;;;20.48;5.60;;;9.30;95.20;;;;;;5067660;28;20021;-49
2024/02/14 01:52:24;;;;;;;28.23;6.20;;;9.30;95.20;;;;;;5068739;28;20020;-49
2024/02/14 01:54:49;;;;;;;26.77;6.55;;;9.30;95.20;;;;;;5067583;28;20104;-49
2024/02/14 01:57:15;;;;;;;26.02;6.32;;;9.30;95.20;;;;;;5067561;28;20017;-49
2024/02/14 01:59:40;;;;;;;19.35;5.93;;;9.30;95.20;;;;;;5067460;28;20044;-48
2024/02/14 02:02:09;;;;;;;28.05;5.25;;;9.30;95.30;;;;;;5067665;28;20025;-49
2024/02/14 02:04:35;;;;;;;23.02;5.72;;;9.30;95.30;;;;;;5067461;28;20489;-49
2024/02/14 02:07:01;;;;;;;22.35;5.47;;;9.30;95.30;;;;;;5050655;28;20036;-49
2024/02/14 02:09:26;;;;;;;27.15;6.03;;;9.30;95.30;;;;;;5066955;28;20037;-49
2024/02/14 02:11:55;;;;;;;19.10;5.13;;;9.30;95.30;;;;;;5067078;28;20021;-49
2024/02/14 02:14:21;;;;;;;25.30;5.03;;;9.30;95.30;;;;;;5068595;28;20110;-49
2024/02/14 02:16:47;;;;;;;26.05;6.22;;;9.30;95.30;;;;;;5067404;28;20025;-49
2024/02/14 02:19:14;;;;;;;30.98;5.68;;;9.20;95.30;;;;;;5068353;28;20097;-49
2024/02/14 02:21:42;;;;;;;24.75;5.25;;;9.20;95.30;;;;;;5067173;28;20055;-49
2024/02/14 02:24:08;;;;;;;25.17;5.10;;;9.20;95.40;;;;;;5067152;28;20037;-49
2024/02/14 02:26:34;;;;;;;22.50;5.53;;;9.20;95.30;;;;;;5068346;28;20036;-49
2024/02/14 02:28:59;;;;;;;20.73;5.28;;;9.20;95.40;;;;;;5068201;28;20100;-49
2024/02/14 02:31:26;;;;;;;20.55;5.40;;;9.20;95.30;;;;;;5067245;28;20044;-49
2024/02/14 02:33:52;;;;;;;20.63;5.30;;;9.20;95.40;;;;;;5068197;28;20029;-49
2024/02/14 02:36:17;;;;;;;21.30;5.75;;;9.20;95.40;;;;;;5067750;28;20044;-49
2024/02/14 02:38:43;;;;;;;18.80;5.30;;;9.10;95.40;;;;;;5067998;28;20033;-49
2024/02/14 02:41:09;;;;;;;19.08;4.45;;;9.20;95.40;;;;;;5067840;28;20049;-49
2024/02/14 02:43:35;;;;;;;25.00;4.80;;;9.10;95.40;;;;;;5049813;28;20047;-49
2024/02/14 02:46:01;;;;;;;21.40;4.60;;;9.10;95.40;;;;;;5066643;28;20032;-49
2024/02/14 02:48:26;;;;;;;19.30;4.82;;;9.10;95.40;;;;;;5066412;28;20063;-49
2024/02/14 02:50:52;;;;;;;16.55;4.53;;;9.10;95.50;;;;;;5067750;28;20044;-49
2024/02/14 02:53:18;;;;;;;18.98;4.43;;;9.10;95.50;;;;;;5066615;28;20029;-49
2024/02/14 02:55:43;;;;;;;18.67;4.20;;;9.10;95.50;;;;;;5066323;28;20047;-49
2024/02/14 02:58:10;;;;;;;22.17;5.03;;;9.00;95.50;;;;;;5067618;28;20068;-49
2024/02/14 03:00:35;;;;;;;21.88;4.60;;;9.10;95.60;;;;;;5066293;28;20024;-48
2024/02/14 03:03:02;;;;;;;15.77;4.15;;;9.00;95.50;;;;;;5067571;28;20029;-49
2024/02/14 03:05:31;;;;;;;17.88;4.53;;;9.10;95.60;;;;;;5066241;28;20067;-49
2024/02/14 03:07:58;;;;;;;18.00;4.80;;;9.00;95.50;;;;;;5067486;28;20606;-49
2024/02/14 03:10:24;;;;;;;18.63;4.10;;;9.00;95.60;;;;;;5066152;28;20095;-49
2024/02/14 03:12:50;;;;;;;14.55;4.45;;;9.00;95.60;;;;;;5066123;28;20033;-48
2024/02/14 03:15:16;;;;;;;17.58;4.35;;;9.00;95.60;;;;;;5066033;28;20067;-49
2024/02/14 03:17:42;;;;;;;26.83;4.30;;;9.00;95.60;;;;;;5066049;28;20037;-49
2024/02/14 03:20:12;;;;;;;17.98;4.55;;;9.00;95.60;;;;;;5067144;28;20025;-49
2024/02/14 03:22:43;;;;;;;21.52;4.80;;;9.00;95.60;;;;;;5066690;28;20041;-49
2024/02/14 03:25:09;;;;;;;18.40;3.92;;;9.00;95.60;;;;;;5067160;28;20473;-49
2024/02/14 03:27:35;;;;;;;16.77;4.03;;;9.00;95.60;;;;;;5067116;28;20025;-49
2024/02/14 03:30:02;;;;;;;19.08;4.10;;;9.00;95.60;;;;;;5066983;28;20029;-49
2024/02/14 03:32:28;;;;;;;15.20;3.95;;;9.00;95.50;;;;;;5065785;28;20028;-49
2024/02/14 03:34:54;;;;;;;15.30;4.35;;;9.00;95.60;;;;;;5065752;28;20025;-49
2024/02/14 03:37:20;;;;;;;17.17;4.75;;;8.90;95.60;;;;;;5066734;28;20122;-49
2024/02/14 03:39:45;;;;;;;12.60;3.55;;;8.90;95.60;;;;;;5065529;28;20033;-49
2024/02/14 03:42:11;;;;;;;10.82;3.90;;;8.90;95.70;;;;;;5066953;28;20047;-49
2024/02/14 03:44:37;;;;;;;19.83;4.90;;;8.90;95.70;;;;;;5066628;28;20090;-49
2024/02/14 03:47:04;;;;;;;14.35;3.80;;;8.90;95.70;;;;;;5066698;28;20029;-49
2024/02/14 03:49:30;;;;;;;16.13;3.70;;;8.90;95.70;;;;;;5066458;28;20037;-49
2024/02/14 03:51:56;;;;;;;11.68;4.10;;;8.90;95.70;;;;;;5048906;28;20035;-49
2024/02/14 03:54:23;;;;;;;16.50;4.45;;;8.90;95.80;;;;;;5065435;28;20044;-49
2024/02/14 03:56:49;;;;;;;18.80;4.35;;;8.80;95.80;;;;;;5048885;28;20028;-49
2024/02/14 03:59:14;;;;;;;13.18;4.18;;;8.80;95.80;;;;;;5066720;28;20068;-49
2024/02/14 04:01:45;;;;;;;15.00;4.07;;;8.80;95.80;;;;;;5066467;28;20064;-49
2024/02/14 04:04:10;;;;;;;12.35;3.40;;;8.80;95.80;;;;;;5065325;28;20041;-49
2024/02/14 04:06:36;;;;;;;12.30;3.80;;;8.90;95.80;;;;;;5065304;28;20032;-49
2024/02/14 04:09:01;;;;;;;15.38;3.85;;;8.80;95.70;;;;;;5066606;28;20033;-49
2024/02/14 04:11:27;;;;;;;16.40;4.50;;;8.80;95.70;;;;;;5068007;28;20021;-49
2024/02/14 04:13:53;;;;;;;10.35;3.65;;;8.80;95.70;;;;;;5066144;28;20037;-49
2024/02/14 04:16:21;;;;;;;11.77;3.75;;;8.80;95.70;;;;;;5065056;28;20074;-49
2024/02/14 04:18:47;;;;;;;10.85;4.00;;;8.80;95.80;;;;;;5066120;28;20110;-49
2024/02/14 04:21:14;;;;;;;10.65;3.75;;;8.80;95.80;;;;;;5066218;28;20029;-49
2024/02/14 04:23:40;;;;;;;10.43;2.72;;;8.80;95.80;;;;;;5066318;28;20029;-49
2024/02/14 04:26:06;;;;;;;14.10;3.42;;;8.80;95.80;;;;;;5066325;28;20469;-49
2024/02/14 04:28:31;;;;;;;10.85;3.50;;;8.80;95.90;;;;;;5066140;28;20028;-49
2024/02/14 04:30:57;;;;;;;12.13;3.97;;;8.80;95.90;;;;;;5064820;28;20025;-49
2024/02/14 04:33:23;;;;;;;10.00;3.97;;;8.50;95.70;;;;;;5066100;28;20096;-49
2024/02/14 04:35:50;;;;;;;11.13;3.53;;;8.80;95.80;;;;;;5067496;28;20029;-49
2024/02/14 04:38:16;;;;;;;10.23;3.55;;;8.80;95.80;;;;;;5070263;28;20033;-49
2024/02/14 04:40:41;;;;;;;13.88;3.53;;;8.80;95.80;;;;;;5070202;28;20029;-49
2024/02/14 04:43:07;;;;;;;8.07;3.38;;;8.80;95.80;;;;;;5052342;28;20421;-49
2024/02/14 04:45:33;;;;;;;12.38;3.42;;;8.80;95.80;;;;;;5070447;28;20060;-49
2024/02/14 04:47:58;;;;;;;9.65;3.60;;;8.70;95.80;;;;;;5070003;28;20120;-49
2024/02/14 04:50:24;;;;;;;9.90;3.03;;;8.80;95.80;;;;;;5069953;28;20036;-49
2024/02/14 04:52:50;;;;;;;10.10;3.10;;;8.80;95.80;;;;;;5070092;28;20053;-49
2024/02/14 04:55:15;;;;;;;9.43;3.40;;;8.70;95.80;;;;;;5068658;28;20059;-49
2024/02/14 04:57:41;;;;;;;7.13;2.70;;;8.80;95.80;;;;;;5069857;28;20040;-49
2024/02/14 05:00:08;;;;;;;11.98;3.53;;;8.70;95.80;;;;;;5069815;28;20425;-49
2024/02/14 05:02:34;;;;;;;13.25;3.50;;;8.70;95.80;;;;;;5069792;28;20031;-49
2024/02/14 05:05:01;;;;;;;9.50;3.45;;;8.70;95.80;;;;;;5069931;28;20029;-49
2024/02/14 05:07:27;;;;;;;8.82;3.40;;;8.70;95.80;;;;;;5068324;28;20481;-48
2024/02/14 05:09:55;;;;;;;9.93;3.33;;;8.70;95.80;;;;;;5069587;28;20040;-49
2024/02/14 05:12:20;;;;;;;8.57;3.10;;;8.70;95.80;;;;;;5068121;28;20051;-49
2024/02/14 05:14:46;;;;;;;10.98;3.50;;;8.70;95.80;;;;;;5069739;28;20134;-49
2024/02/14 05:17:11;;;;;;;10.55;2.92;;;8.70;95.80;;;;;;5068427;28;20028;-49
2024/02/14 05:19:37;;;;;;;9.48;2.97;;;8.70;95.90;;;;;;5068118;28;20059;-49
2024/02/14 05:22:03;;;;;;;10.13;2.88;;;8.70;95.90;;;;;;5069483;28;20021;-49
2024/02/14 05:24:29;;;;;;;14.68;3.55;;;8.70;95.80;;;;;;5068100;28;20033;-49
2024/02/14 05:26:55;;;;;;;7.75;3.33;;;8.70;95.80;;;;;;5069545;28;20035;-49
2024/02/14 05:29:20;;;;;;;11.57;3.13;;;8.70;95.80;;;;;;5068012;28;20090;-49
2024/02/14 05:31:48;;;;;;;11.02;2.80;;;8.70;95.80;;;;;;5069452;28;20021;-49
2024/02/14 05:34:14;;;;;;;8.73;2.70;;;8.70;95.70;;;;;;5068016;28;20036;-49
2024/02/14 05:36:39;;;;;;;8.93;2.70;;;8.70;95.70;;;;;;5069073;28;20033;-49
2024/02/14 05:39:08;;;;;;;8.02;2.60;;;8.70;95.70;;;;;;5069178;28;20037;-49
2024/02/14 05:41:34;;;;;;;14.15;2.80;;;8.70;95.70;;;;;;5069043;28;20032;-49
2024/02/14 05:44:00;;;;;;;11.70;3.03;;;8.70;95.70;;;;;;5067715;28;20037;-49
2024/02/14 05:46:25;;;;;;;10.80;3.17;;;8.80;95.70;;;;;;5067266;28;20025;-49
2024/02/14 05:48:52;;;;;;;11.95;3.72;;;8.70;95.70;;;;;;5068971;28;20029;-49
2024/02/14 05:51:18;;;;;;;15.07;2.95;;;8.70;95.70;;;;;;5067702;28;20560;-48
2024/02/14 05:53:46;;;;;;;13.57;3.15;;;8.70;95.70;;;;;;5067486;28;20037;-49
2024/02/14 05:56:12;;;;;;;17.17;3.60;;;8.80;95.70;;;;;;5068602;28;20053;-49
2024/02/14 05:58:37;;;;;;;10.85;2.78;;;8.70;95.60;;;;;;5067438;28;20029;-49
2024/02/14 06:01:03;;;;;;;12.30;3.30;;;8.80;95.60;;;;;;5068651;28;20028;-49
2024/02/14 06:03:28;;;;;;;14.60;3.83;;;8.80;95.70;;;;;;5068654;28;20083;-49
2024/02/14 06:05:54;;;;;;;20.33;4.15;;;8.80;95.70;;;;;;5068506;28;20051;-49
2024/02/14 06:08:20;;;;;;;15.25;3.45;;;8.80;95.60;;;;;;5067329;28;20067;-49
2024/02/14 06:10:46;;;;;;;15.55;3.60;;;8.70;95.60;;;;;;5067315;28;20401;-49
2024/02/14 06:13:11;;;;;;;31.52;4.45;;;8.80;95.60;;;;;;5068536;28;20106;-49
2024/02/14 06:15:37;;;;;;;25.65;4.10;;;8.80;95.60;;;;;;5068530;28;20049;-49
2024/02/14 06:18:02;;;;;;;22.17;4.80;;;8.80;95.60;;;;;;5066915;28;20575;-49
2024/02/14 06:20:28;;;;;;;17.67;3.63;;;8.80;95.60;;;;;;5067158;28;20117;-49
2024/02/14 06:22:54;;;;;;;22.40;4.15;;;8.70;95.50;;;;;;5067021;28;20090;-49
2024/02/14 06:25:20;;;;;;;17.67;3.70;;;8.70;95.50;;;;;;5068124;28;20051;-49
2024/02/14 06:27:46;;;;;;;18.33;3.35;;;8.70;95.50;;;;;;5066747;28;20064;-49
2024/02/14 06:30:12;;;;;;;16.65;3.75;;;8.80;95.50;;;;;;5068033;28;20021;-49
2024/02/14 06:32:40;;;;;;;28.73;4.30;;;8.70;95.50;;;;;;5066839;28;20045;-49
2024/02/14 06:35:06;;;;;;;13.40;3.83;;;8.80;95.60;;;;;;5066880;28;20100;-49
2024/02/14 06:37:31;;;;;;;21.40;3.88;;;8.70;95.60;;;;;;5067649;28;20036;-49
2024/02/14 06:40:00;;;;;;;26.65;4.30;;;8.80;95.60;;;;;;5066612;28;20029;-49
2024/02/14 06:42:26;;;;;;;33.05;5.13;;;8.70;95.50;;;;;;5067692;28;20055;-49
2024/02/14 06:44:52;;;;;;;37.97;6.28;;;8.80;95.60;;;;;;5066435;28;20131;-49
2024/02/14 06:47:18;;;;;;;38.45;5.30;;;8.80;95.70;;;;;;5066345;28;20037;-49
2024/02/14 06:49:43;;;;;;;28.73;5.45;;;8.80;95.80;;;;;;5067653;28;20029;-49
2024/02/14 06:52:09;;;;;;;26.17;5.55;;;8.80;95.90;;;;;;5067548;28;20496;-49
2024/02/14 06:54:35;;;;;;;28.52;5.13;;;8.80;95.80;;;;;;5067696;28;20489;-49
2024/02/14 06:57:00;;;;;;;28.05;5.32;;;8.80;95.80;;;;;;5065783;28;20436;-50
2024/02/14 06:59:26;;;;;;;23.40;4.18;;;8.80;95.80;;;;;;5066990;28;20053;-49
2024/02/14 07:01:54;;;;;;;26.88;4.45;;;8.80;95.80;;;;;;5067387;28;20059;-49
2024/02/14 07:04:25;;;;;;;37.03;5.15;;;8.80;95.70;;;;;;5067399;28;20029;-49
2024/02/14 07:06:52;;;;;;;26.27;5.35;;;8.80;95.60;;;;;;5067195;28;20040;-48
2024/02/14 07:09:17;;;;;;;36.72;5.18;;;8.80;95.40;;;;;;5073230;28;20037;-49
2024/02/14 07:11:43;;;;;;;22.73;4.85;;;8.80;95.30;;;;;;5087009;28;20021;-49
2024/02/14 07:14:08;;;;;;;20.85;3.97;;;8.80;95.30;;;;;;5078080;28;20025;-49
2024/02/14 07:16:34;;;;;;;24.02;5.35;;;8.80;95.40;;;;;;5065846;28;20021;-49
2024/02/14 07:18:59;;;;;;;26.00;5.00;;;8.80;95.40;;;;;;5067138;28;20056;-49
2024/02/14 07:21:25;;;;;;;31.23;4.88;;;8.80;95.30;;;;;;5067153;28;20027;-49
2024/02/14 07:23:50;;;;;;;11.35;3.65;;;8.80;95.30;;;;;;5066614;28;20041;-49
2024/02/14 07:26:16;;;;;;;27.63;4.78;;;8.80;95.30;;;;;;5065209;28;20021;-49
2024/02/14 07:28:42;;;;;;;40.80;6.38;;;8.80;95.20;;;;;;5063138;28;20033;-49
2024/02/14 07:31:07;;;;;;;46.10;6.40;;;8.80;95.30;;;;;;5048811;28;20047;-49
2024/02/14 07:33:33;;;;;;;35.25;6.10;;;8.90;95.30;;;;;;5064521;28;20055;-49
2024/02/14 07:35:58;;;;;;;29.23;6.00;;;8.90;95.30;;;;;;5065305;28;20032;-49
2024/02/14 07:38:24;;;;;;;34.90;4.93;;;8.90;95.30;;;;;;5066846;28;20055;-49
2024/02/14 07:40:50;;;;;;;26.90;4.85;;;8.90;95.30;;;;;;5066678;28;20040;-49
2024/02/14 07:43:15;;;;;;;31.77;4.90;;;8.90;95.20;;;;;;5066493;28;20041;-49
2024/02/14 07:45:41;;;;;;;23.70;4.13;;;8.90;95.20;;;;;;5066446;28;20048;-49
2024/02/14 07:48:07;;;;;;;23.85;4.45;;;8.90;95.10;;;;;;5066539;28;20064;-49
2024/02/14 07:50:33;;;;;;;36.17;5.25;;;8.90;95.10;;;;;;5066415;28;20029;-49
2024/02/14 07:52:59;;;;;;;30.98;4.10;;;8.90;95.10;;;;;;5032008;28;20043;-49
2024/02/14 07:55:24;;;;;;;34.33;5.32;;;8.90;95.10;;;;;;5064252;28;20021;-49
2024/02/14 07:57:50;;;;;;;34.63;6.30;;;8.90;95.10;;;;;;5076754;28;20096;-49
2024/02/14 08:00:22;;;;;;;47.80;6.28;;;8.90;95.10;;;;;;5085092;28;20524;-49
2024/02/14 08:02:48;;;;;;;59.15;7.28;;;8.90;95.00;;;;;;5075466;28;20048;-49
2024/02/14 08:05:14;;;;;;;57.45;6.55;;;8.90;94.90;;;;;;5078904;28;20061;-49
2024/02/14 08:07:40;;;;;;;47.55;6.22;;;9.00;94.90;;;;;;5085396;28;20036;-48
2024/02/14 08:10:05;;;;;;;36.20;5.95;;;8.90;94.90;;;;;;5070389;28;20040;-49
2024/02/14 08:12:31;;;;;;;60.38;7.18;;;8.90;94.90;;;;;;5077017;28;20039;-49
2024/02/14 08:14:57;;;;;;;49.00;6.10;;;8.90;94.90;;;;;;5065518;28;20092;-49
2024/02/14 08:17:23;;;;;;;48.67;5.72;;;8.90;94.80;;;;;;5072280;28;20016;-49
2024/02/14 08:19:48;;;;;;;45.45;5.40;;;9.00;94.80;;;;;;5079254;28;20040;-49
2024/02/14 08:22:14;;;;;;;59.60;6.70;;;9.00;94.80;;;;;;5085273;28;20028;-49
2024/02/14 08:24:39;;;;;;;49.72;6.00;;;9.00;94.50;;;;;;5070388;28;20040;-48
2024/02/14 08:27:06;;;;;;;36.78;4.78;;;9.00;94.30;;;;;;5048863;28;20054;-49
2024/02/14 08:29:32;;;;;;;52.80;6.38;;;9.00;94.10;;;;;;5081958;28;20036;-49
2024/02/14 08:31:57;;;;;;;31.80;4.90;;;9.00;94.10;;;;;;5065900;28;20031;-49
2024/02/14 08:34:23;;;;;;;32.80;5.07;;;9.10;94.20;;;;;;5065680;28;20116;-49
2024/02/14 08:36:49;;;;;;;57.15;6.72;;;9.10;94.10;;;;;;5052521;28;20029;-49
2024/02/14 08:39:15;;;;;;;40.53;5.55;;;9.10;94.00;;;;;;5053979;28;20029;-49
2024/02/14 08:41:43;;;;;;;43.50;6.13;;;9.10;93.90;;;;;;5064328;28;20037;-49
2024/02/14 08:44:08;;;;;;;51.40;5.32;;;9.10;93.80;;;;;;5060776;28;20127;-49
2024/02/14 08:46:34;;;;;;;40.33;5.07;;;9.10;94.10;;;;;;5042757;28;20048;-49
2024/02/14 08:49:02;;;;;;;34.28;5.38;;;9.10;93.80;;;;;;5055740;28;20264;-49
2024/02/14 08:51:28;;;;;;;35.25;4.80;;;9.20;93.70;;;;;;5048203;28;20049;-48
2024/02/14 08:53:55;;;;;;;45.90;5.65;;;9.10;93.70;;;;;;5048555;28;20056;-49
2024/02/14 08:56:22;;;;;;;33.20;4.88;;;9.20;93.70;;;;;;5057203;28;20032;-49
2024/02/14 08:58:49;;;;;;;44.55;5.95;;;9.20;93.60;;;;;;5067843;28;20028;-49
2024/02/14 09:01:15;;;;;;;30.75;5.85;;;9.20;93.50;;;;;;5059451;28;20108;-49
2024/02/14 09:03:47;;;;;;;49.15;6.13;;;9.30;93.60;;;;;;5059718;28;20026;-48
2024/02/14 09:06:14;;;;;;;39.72;6.47;;;9.20;93.40;;;;;;5058037;28;20029;-49
2024/02/14 09:08:40;;;;;;;44.47;5.13;;;9.30;93.30;;;;;;5063796;28;20025;-49
2024/02/14 09:11:06;;;;;;;31.08;5.20;;;9.30;93.50;;;;;;5080543;28;20037;-49
2024/02/14 09:13:31;;;;;;;36.25;4.95;;;9.30;93.20;;;;;;5078682;28;20051;-49
2024/02/14 09:15:57;;;;;;;29.25;4.53;;;9.30;93.00;;;;;;5084208;28;20119;-49
2024/02/14 09:18:24;;;;;;;30.05;4.03;;;9.30;93.20;;;;;;5083123;28;20029;-49
2024/02/14 09:20:50;;;;;;;22.70;3.00;;;9.40;92.90;;;;;;5080859;28;20119;-49
2024/02/14 09:23:20;;;;;;;24.38;4.00;;;9.40;92.80;;;;;;5068703;28;20051;-49
2024/02/14 09:25:47;;;;;;;54.22;5.47;;;9.40;92.70;;;;;;5068907;28;20029;-49
2024/02/14 09:28:14;;;;;;;45.53;5.40;;;9.40;92.80;;;;;;5060982;28;20030;-49
2024/02/14 09:30:39;;;;;;;34.55;5.00;;;9.50;92.80;;;;;;5067382;28;20044;-49
2024/02/14 09:33:05;;;;;;;40.28;5.97;;;9.50;92.80;;;;;;5067754;28;20040;-49
2024/02/14 09:35:30;;;;;;;41.72;5.57;;;9.50;92.80;;;;;;5046309;28;20579;-49
2024/02/14 09:37:56;;;;;;;39.67;4.72;;;9.60;92.80;;;;;;5060838;28;20079;-49
2024/02/14 09:40:22;;;;;;;38.88;5.18;;;9.60;92.80;;;;;;5069913;28;20033;-49
2024/02/14 09:43:00;;;;;;;49.03;4.65;;;9.60;92.70;;;;;;5077940;28;20067;-49
2024/02/14 09:45:26;;;;;;;54.70;5.93;;;9.60;92.60;;;;;;5051420;28;20087;-49
2024/02/14 09:47:52;;;;;;;61.85;6.85;;;9.60;92.60;;;;;;5059467;28;20093;-48
2024/02/14 09:50:18;;;;;;;37.83;6.15;;;9.70;92.50;;;;;;5080909;28;20045;-48
2024/02/14 09:52:44;;;;;;;30.25;4.60;;;9.70;92.50;;;;;;5067957;28;20037;-49
2024/02/14 09:55:09;;;;;;;27.60;4.60;;;9.70;92.50;;;;;;5057303;28;20028;-49
2024/02/14 09:57:36;;;;;;;29.98;4.82;;;9.80;92.30;;;;;;5061427;28;20013;-49
2024/02/14 10:00:02;;;;;;;24.42;4.45;;;9.80;92.30;;;;;;5083098;28;20029;-49
2024/02/14 10:02:29;;;;;;;21.80;4.28;;;9.80;92.20;;;;;;5073376;28;20040;-49
2024/02/14 10:04:55;;;;;;;29.65;4.35;;;9.80;92.20;;;;;;5043196;28;20036;-49
2024/02/14 10:07:20;;;;;;;54.80;7.38;;;9.90;92.20;;;;;;5066809;28;20041;-49
2024/02/14 10:09:46;;;;;;;44.75;4.95;;;9.90;92.10;;;;;;5074471;28;20032;-49
2024/02/14 10:12:12;;;;;;;38.15;5.03;;;9.90;92.30;;;;;;5077962;28;20032;-49
2024/02/14 10:14:37;;;;;;;36.60;5.28;;;10.00;92.30;;;;;;5047063;28;20036;-49
2024/02/14 10:17:07;;;;;;;39.75;4.57;;;10.00;92.10;;;;;;5067282;28;20025;-49
2024/02/14 10:19:33;;;;;;;47.22;5.43;;;10.00;91.80;;;;;;5072942;28;20109;-49
2024/02/14 10:22:00;;;;;;;46.20;6.90;;;10.00;91.70;;;;;;5043569;28;20029;-49
2024/02/14 10:24:30;;;;;;;45.95;5.93;;;10.10;91.70;;;;;;5037953;28;20063;-49
2024/02/14 10:26:57;;;;;;;68.00;7.95;;;10.10;91.60;;;;;;5061606;28;20033;-49
2024/02/14 10:29:23;;;;;;;52.05;6.80;;;10.10;91.80;;;;;;5068311;28;20024;-49
2024/02/14 10:31:49;;;;;;;78.75;10.18;;;10.20;91.70;;;;;;5067960;28;20040;-49
2024/02/14 10:34:14;;;;;;;82.50;9.18;;;10.20;91.60;;;;;;5068808;28;20060;-49
2024/02/14 10:36:41;;;;;;;68.40;8.63;;;10.20;91.40;;;;;;5066406;28;20039;-49
2024/02/14 10:39:07;;;;;;;53.65;6.85;;;10.30;91.40;;;;;;5070433;28;20097;-49
2024/02/14 10:41:35;;;;;;;50.20;6.07;;;10.30;91.40;;;;;;5066445;28;20393;-49
2024/02/14 10:44:05;;;;;;;53.45;7.25;;;10.30;91.20;;;;;;5056629;28;20041;-49
2024/02/14 10:46:33;;;;;;;70.43;8.63;;;10.40;91.10;;;;;;5058087;28;20105;-49
2024/02/14 10:49:02;;;;;;;77.28;10.27;;;10.40;91.20;;;;;;5035835;28;20032;-49
2024/02/14 10:51:30;;;;;;;71.82;8.18;;;10.40;91.20;;;;;;5057214;28;20077;-49
2024/02/14 10:53:56;;;;;;;65.47;8.55;;;10.50;91.00;;;;;;5047809;28;20152;-49
2024/02/14 10:56:22;;;;;;;119.50;13.70;;;10.50;90.90;;;;;;5056168;28;20030;-49
2024/02/14 10:58:49;;;;;;;84.55;11.60;;;10.50;90.80;;;;;;5071179;28;20057;-49
2024/02/14 11:01:16;;;;;;;82.53;10.93;;;10.50;90.70;;;;;;5057137;28;20063;-49
2024/02/14 11:03:42;;;;;;;77.45;10.80;;;10.60;91.00;;;;;;5082901;28;20100;-49
2024/02/14 11:06:08;;;;;;;97.65;12.32;;;10.60;90.80;;;;;;5085264;28;20108;-49
2024/02/14 11:08:35;;;;;;;105.47;11.20;;;10.60;90.90;;;;;;5047711;28;20030;-49
2024/02/14 11:11:01;;;;;;;69.60;10.02;;;10.70;90.80;;;;;;5075184;28;20039;-49
2024/02/14 11:13:30;;;;;;;79.25;10.32;;;10.70;90.80;;;;;;5083542;28;20028;-49
2024/02/14 11:15:57;;;;;;;84.60;11.07;;;10.70;90.70;;;;;;5077074;28;20049;-50
2024/02/14 11:18:26;;;;;;;96.18;11.88;;;10.80;90.70;;;;;;5063498;28;20473;-51
2024/02/14 11:20:52;;;;;;;98.07;12.07;;;10.80;90.70;;;;;;5058068;28;20033;-51
2024/02/14 11:23:21;;;;;;;105.47;12.15;;;10.80;90.70;;;;;;5078065;28;20038;-51
2024/02/14 11:25:48;;;;;;;88.45;9.35;;;10.90;90.80;;;;;;5064053;28;20052;-51
2024/02/14 11:28:14;;;;;;;109.95;12.18;;;10.90;90.70;;;;;;5044138;28;20381;-49
2024/02/14 11:30:40;;;;;;;114.20;12.55;;;10.90;90.70;;;;;;5058873;28;20029;-49
2024/02/14 11:33:21;;;;;;;63.63;9.38;;;11.00;90.70;;;;;;5047077;28;20034;-49
2024/02/14 11:35:55;;;;;;;25.05;4.70;;;11.00;90.70;;;;;;5046497;28;20018;-49
2024/02/14 11:38:25;;;;;;;31.48;3.58;;;11.00;90.10;;;;;;5045312;28;20033;-49
2024/02/14 11:40:51;;;;;;;33.80;5.00;;;11.00;89.80;;;;;;5054875;28;20029;-49
2024/02/14 11:43:18;;;;;;;21.90;3.95;;;11.10;90.20;;;;;;5082488;28;20032;-49
2024/02/14 11:45:45;;;;;;;37.03;5.30;;;11.10;89.90;;;;;;5085392;28;20035;-49
2024/02/14 11:48:14;;;;;;;106.32;10.15;;;11.20;89.90;;;;;;5050091;28;20032;-49
2024/02/14 11:50:41;;;;;;;46.85;6.60;;;11.20;90.00;;;;;;5071948;28;20043;-49
2024/02/14 11:53:10;;;;;;;34.20;4.43;;;11.20;90.00;;;;;;5081577;28;20290;-49
2024/02/14 11:55:37;;;;;;;27.65;4.93;;;11.20;89.70;;;;;;5085116;28;20020;-49
2024/02/14 11:58:07;;;;;;;24.48;4.82;;;11.30;89.40;;;;;;5064033;28;20068;-50
2024/02/14 12:00:33;;;;;;;65.60;10.20;;;11.30;89.30;;;;;;5065109;28;20048;-48
2024/02/14 12:02:58;;;;;;;121.05;12.48;;;11.30;89.30;;;;;;5082648;28;20043;-49
2024/02/14 12:05:24;;;;;;;102.38;11.63;;;11.40;89.20;;;;;;5049252;28;20029;-49
2024/02/14 12:07:50;;;;;;;118.05;13.88;;;11.50;89.10;;;;;;5064811;28;20037;-48
2024/02/14 12:10:17;;;;;;;93.70;12.10;;;11.50;89.60;;;;;;5061787;28;20100;-49
2024/02/14 12:12:46;;;;;;;101.45;10.65;;;11.50;88.70;;;;;;5061838;28;20088;-49
2024/02/14 12:15:13;;;;;;;72.72;7.93;;;11.50;89.30;;;;;;5082874;28;20043;-48
2024/02/14 12:17:39;;;;;;;57.58;7.68;;;11.60;88.70;;;;;;5080356;28;20036;-48
2024/02/14 12:20:13;;;;;;;57.15;7.53;;;11.60;88.70;;;;;;5014347;28;20164;-49
2024/02/14 12:22:40;;;;;;;94.22;9.43;;;11.60;88.50;;;;;;5078996;28;20041;-49
2024/02/14 12:25:06;;;;;;;84.00;12.05;;;11.70;88.80;;;;;;5069876;28;20020;-49
2024/02/14 12:27:33;;;;;;;76.53;9.98;;;11.70;88.20;;;;;;5051563;28;20054;-49
2024/02/14 12:29:59;;;;;;;69.85;7.97;;;11.70;87.80;;;;;;5085190;28;20055;-49
2024/02/14 12:32:25;;;;;;;71.95;8.07;;;11.70;87.80;;;;;;5085279;28;20489;-49
2024/02/14 12:34:50;;;;;;;58.67;8.38;;;11.80;87.80;;;;;;5081284;28;20082;-49
2024/02/14 12:37:16;;;;;;;63.72;9.13;;;11.90;87.60;;;;;;5081958;28;20024;-49